createdAt,value
2018-01-20T00:00:23.531Z,14.03
2018-01-20T00:02:58.658Z,16.65
2018-01-20T00:05:33.959Z,15.07
2018-01-20T00:08:08.915Z,14.50
2018-01-20T00:10:55.048Z,14.52
2018-01-20T00:13:30.438Z,16.20
2018-01-20T00:16:05.362Z,14.53
2018-01-20T00:18:40.074Z,14.80
2018-01-20T00:21:15.182Z,15.10
2018-01-20T00:23:51.364Z,10.10
2018-01-20T00:26:44.877Z,13.80
2018-01-20T00:29:19.901Z,14.07
2018-01-20T00:31:55.119Z,14.13
2018-01-20T00:34:29.506Z,16.03
2018-01-20T00:37:04.602Z,16.00
2018-01-20T00:39:41.073Z,16.87
2018-01-20T00:42:16.012Z,12.65
2018-01-20T00:44:51.429Z,16.50
2018-01-20T00:47:26.047Z,13.77
2018-01-20T00:50:01.332Z,16.12
2018-01-20T00:52:36.423Z,17.93
2018-01-20T00:55:11.343Z,18.10
2018-01-20T00:57:46.237Z,16.10
2018-01-20T01:00:21.246Z,17.03
2018-01-20T01:02:56.414Z,16.80
2018-01-20T01:05:31.116Z,17.90
2018-01-20T01:08:06.411Z,17.50
2018-01-20T01:10:40.936Z,11.37
2018-01-20T01:13:16.125Z,18.77
2018-01-20T01:15:52.523Z,18.60
2018-01-20T01:18:26.838Z,17.73
2018-01-20T01:21:02.293Z,18.53
2018-01-20T01:23:37.212Z,17.87
2018-01-20T01:26:12.102Z,20.87
2018-01-20T01:28:46.750Z,18.90
2018-01-20T01:31:22.175Z,17.42
2018-01-20T01:33:57.343Z,17.90
2018-01-20T01:36:32.143Z,18.40
2018-01-20T01:39:06.742Z,17.83
2018-01-20T01:41:41.918Z,18.73
2018-01-20T01:44:17.069Z,16.15
2018-01-20T01:46:51.372Z,19.53
2018-01-20T01:49:26.599Z,20.07
2018-01-20T01:52:01.663Z,19.07
2018-01-20T01:54:36.611Z,19.63
2018-01-20T01:57:11.645Z,20.80
2018-01-20T01:59:46.580Z,18.83
2018-01-20T02:02:21.609Z,19.07
2018-01-20T02:04:56.844Z,22.87
2018-01-20T02:07:31.685Z,20.67
2018-01-20T02:10:06.687Z,21.00
2018-01-20T02:12:42.151Z,20.10
2018-01-20T02:15:17.332Z,19.87
2018-01-20T02:17:52.430Z,21.03
2018-01-20T02:20:26.755Z,19.57
2018-01-20T02:23:01.354Z,21.65
2018-01-20T02:25:36.483Z,21.07
2018-01-20T02:28:11.383Z,19.57
2018-01-20T02:30:46.464Z,19.33
2018-01-20T02:33:21.313Z,20.87
2018-01-20T02:35:56.613Z,22.20
2018-01-20T02:38:31.349Z,20.13
2018-01-20T02:41:06.768Z,22.20
2018-01-20T02:43:41.491Z,20.60
2018-01-20T02:46:16.494Z,20.30
2018-01-20T02:48:51.835Z,23.70
2018-01-20T02:51:27.499Z,21.90
2018-01-20T02:54:02.359Z,21.35
2018-01-20T02:56:37.396Z,23.43
2018-01-20T02:59:12.744Z,21.87
2018-01-20T03:01:47.540Z,23.30
2018-01-20T03:04:22.707Z,20.30
2018-01-20T03:06:57.742Z,22.27
2018-01-20T03:09:32.787Z,20.30
2018-01-20T03:12:07.879Z,23.13
2018-01-20T03:14:42.522Z,21.20
2018-01-20T03:17:17.540Z,23.57
2018-01-20T03:19:52.862Z,20.00
2018-01-20T03:22:27.835Z,19.17
2018-01-20T03:25:02.992Z,22.13
2018-01-20T03:27:38.388Z,25.37
2018-01-20T03:30:13.386Z,18.40
2018-01-20T03:32:48.447Z,21.73
2018-01-20T03:35:23.447Z,22.40
2018-01-20T03:37:58.375Z,18.50
2018-01-20T03:40:33.496Z,19.70
2018-01-20T03:43:08.613Z,21.23
2018-01-20T03:45:43.584Z,22.95
2018-01-20T03:48:18.647Z,22.10
2018-01-20T03:50:53.749Z,17.10
2018-01-20T03:53:28.635Z,21.83
2018-01-20T03:56:03.715Z,15.52
2018-01-20T03:58:38.528Z,20.20
2018-01-20T04:01:13.492Z,20.20
2018-01-20T04:03:48.671Z,20.97
2018-01-20T04:06:23.639Z,18.53
2018-01-20T04:08:58.762Z,17.70
2018-01-20T04:11:33.754Z,20.97
2018-01-20T04:14:08.748Z,17.17
2018-01-20T04:16:43.563Z,26.10
2018-01-20T04:19:18.619Z,21.70
2018-01-20T04:21:53.838Z,21.70
2018-01-20T04:24:28.720Z,19.60
2018-01-20T04:27:04.007Z,17.90
2018-01-20T04:29:39.600Z,21.12
2018-01-20T04:32:14.490Z,19.23
2018-01-20T04:34:49.691Z,18.60
2018-01-20T04:37:24.093Z,18.57
2018-01-20T04:39:59.112Z,16.80
2018-01-20T04:42:34.765Z,18.53
2018-01-20T04:45:10.063Z,19.77
2018-01-20T04:47:44.948Z,15.90
2018-01-20T04:50:19.876Z,18.27
2018-01-20T04:52:55.028Z,16.23
2018-01-20T04:55:29.319Z,16.40
2018-01-20T04:58:04.914Z,13.45
2018-01-20T05:00:39.900Z,12.40
2018-01-20T05:03:14.868Z,13.70
2018-01-20T05:05:49.767Z,12.33
2018-01-20T05:08:24.785Z,14.97
2018-01-20T05:10:59.867Z,14.63
2018-01-20T05:13:34.782Z,14.10
2018-01-20T05:16:09.696Z,13.50
2018-01-20T05:18:44.863Z,13.03
2018-01-20T05:21:19.761Z,14.70
2018-01-20T05:23:54.636Z,12.20
2018-01-20T05:26:30.480Z,13.27
2018-01-20T05:29:05.725Z,12.77
2018-01-20T05:31:40.751Z,13.23
2018-01-20T05:34:15.800Z,14.70
2018-01-20T05:36:52.260Z,13.85
2018-01-20T05:39:27.575Z,12.20
2018-01-20T05:42:02.368Z,14.83
2018-01-20T05:44:37.742Z,14.93
2018-01-20T05:47:12.367Z,18.07
2018-01-20T05:49:47.809Z,17.90
2018-01-20T05:52:22.693Z,18.42
2018-01-20T05:54:58.012Z,15.63
2018-01-20T05:57:32.423Z,14.77
2018-01-20T06:00:07.223Z,20.87
2018-01-20T06:02:42.328Z,18.60
2018-01-20T06:05:17.872Z,16.48
2018-01-20T06:07:52.968Z,17.50
2018-01-20T06:10:27.851Z,17.57
2018-01-20T06:13:03.176Z,15.10
2018-01-20T06:15:38.004Z,15.53
2018-01-20T06:18:13.040Z,15.70
2018-01-20T06:20:48.182Z,16.43
2018-01-20T06:23:22.870Z,15.57
2018-01-20T06:25:58.172Z,12.93
2018-01-20T06:28:33.078Z,19.40
2018-01-20T06:31:08.427Z,18.27
2018-01-20T06:33:43.273Z,19.07
2018-01-20T06:36:18.191Z,18.50
2018-01-20T06:38:53.159Z,21.17
2018-01-20T06:41:28.258Z,18.60
2018-01-20T06:44:03.510Z,18.27
2018-01-20T06:46:38.297Z,18.70
2018-01-20T06:49:13.459Z,19.13
2018-01-20T06:51:48.318Z,16.53
2018-01-20T06:54:23.198Z,14.30
2018-01-20T06:56:58.240Z,17.10
2018-01-20T06:59:33.147Z,16.50
2018-01-20T07:02:08.544Z,18.17
2018-01-20T07:04:43.249Z,19.80
2018-01-20T07:07:18.239Z,15.30
2018-01-20T07:09:53.464Z,18.30
2018-01-20T07:12:28.171Z,17.70
2018-01-20T07:15:03.446Z,16.00
2018-01-20T07:17:38.364Z,17.67
2018-01-20T07:20:13.684Z,18.70
2018-01-20T07:22:48.967Z,19.35
2018-01-20T07:25:23.955Z,18.83
2018-01-20T07:27:58.660Z,18.63
2018-01-20T07:30:33.729Z,19.30
2018-01-20T07:33:08.767Z,17.00
2018-01-20T07:35:43.718Z,19.50
2018-01-20T07:38:19.119Z,16.02
2018-01-20T07:40:53.717Z,20.13
2018-01-20T07:43:29.025Z,19.65
2018-01-20T07:46:04.371Z,14.30
2018-01-20T07:48:39.191Z,13.27
2018-01-20T07:51:14.135Z,21.27
2018-01-20T07:53:49.058Z,19.98
2018-01-20T07:56:24.061Z,20.12
2018-01-20T07:58:58.657Z,17.87
2018-01-20T08:01:33.576Z,16.37
2018-01-20T08:04:08.656Z,17.80
2018-01-20T08:06:43.321Z,22.20
2018-01-20T08:09:18.211Z,20.40
2018-01-20T08:11:53.505Z,16.23
2018-01-20T08:14:28.285Z,21.47
2018-01-20T08:17:03.498Z,20.80
2018-01-20T08:19:38.296Z,18.13
2018-01-20T08:22:13.574Z,18.73
2018-01-20T08:24:48.446Z,16.57
2018-01-20T08:27:23.439Z,22.40
2018-01-20T08:29:58.532Z,20.37
2018-01-20T08:32:33.471Z,16.60
2018-01-20T08:35:08.388Z,18.67
2018-01-20T08:37:43.495Z,22.90
2018-01-20T08:40:18.412Z,16.77
2018-01-20T08:42:53.494Z,18.40
2018-01-20T08:45:28.333Z,21.80
2018-01-20T08:48:03.250Z,21.80
2018-01-20T08:50:38.309Z,24.67
2018-01-20T08:53:13.276Z,18.90
2018-01-20T08:55:48.428Z,23.40
2018-01-20T08:58:23.530Z,20.00
2018-01-20T09:00:58.537Z,19.08
2018-01-20T09:03:33.397Z,18.03
2018-01-20T09:06:07.982Z,24.27
2018-01-20T09:08:43.340Z,23.47
2018-01-20T09:11:18.546Z,22.80
2018-01-20T09:13:53.380Z,25.40
2018-01-20T09:16:28.601Z,23.20
2018-01-20T09:19:03.683Z,21.60
2018-01-20T09:21:38.701Z,23.87
2018-01-20T09:24:13.704Z,21.53
2018-01-20T09:26:48.796Z,28.13
2018-01-20T09:29:23.764Z,23.67
2018-01-20T09:31:58.872Z,18.95
2018-01-20T09:34:33.805Z,25.17
2018-01-20T09:37:08.896Z,19.00
2018-01-20T09:39:44.429Z,19.30
2018-01-20T09:42:19.486Z,15.10
2018-01-20T09:44:54.645Z,21.20
2018-01-20T09:47:29.484Z,19.77
2018-01-20T09:50:04.122Z,17.27
2018-01-20T09:52:39.497Z,15.93
2018-01-20T09:55:14.391Z,14.87
2018-01-20T09:57:49.296Z,17.17
2018-01-20T10:00:24.598Z,18.23
2018-01-20T10:02:59.781Z,17.10
2018-01-20T10:05:34.578Z,16.90
2018-01-20T10:08:09.529Z,18.63
2018-01-20T10:10:44.515Z,14.80
2018-01-20T10:13:19.519Z,17.03
2018-01-20T10:15:54.806Z,17.25
2018-01-20T10:18:29.675Z,16.80
2018-01-20T10:21:04.764Z,16.65
2018-01-20T10:23:39.659Z,19.33
2018-01-20T10:26:14.953Z,18.63
2018-01-20T10:28:49.976Z,19.43
2018-01-20T10:31:25.068Z,17.93
2018-01-20T10:34:00.833Z,18.37
2018-01-20T10:36:35.707Z,18.37
2018-01-20T10:39:10.909Z,18.60
2018-01-20T10:41:45.641Z,19.33
2018-01-20T10:44:20.629Z,21.77
2018-01-20T10:46:55.573Z,18.17
2018-01-20T10:49:30.455Z,21.02
2018-01-20T10:52:06.012Z,18.10
2018-01-20T10:54:40.805Z,14.50
2018-01-20T10:57:15.741Z,11.20
2018-01-20T10:59:50.650Z,18.70
2018-01-20T11:02:25.692Z,15.70
2018-01-20T11:05:00.673Z,16.67
2018-01-20T11:07:35.767Z,15.80
2018-01-20T11:10:10.785Z,14.60
2018-01-20T11:12:45.977Z,12.70
2018-01-20T11:15:20.789Z,16.40
2018-01-20T11:17:56.041Z,14.63
2018-01-20T11:20:30.743Z,17.37
2018-01-20T11:23:05.960Z,15.37
2018-01-20T11:25:40.865Z,14.80
2018-01-20T11:28:15.749Z,12.90
2018-01-20T11:30:51.004Z,13.70
2018-01-20T11:33:25.909Z,13.03
2018-01-20T11:36:01.044Z,14.33
2018-01-20T11:38:36.157Z,15.43
2018-01-20T11:41:11.354Z,15.97
2018-01-20T11:43:46.246Z,14.37
2018-01-20T11:46:21.019Z,10.87
2018-01-20T11:48:56.422Z,11.23
2018-01-20T11:51:31.137Z,12.30
2018-01-20T11:54:06.157Z,13.20
2018-01-20T11:56:41.171Z,11.53
2018-01-20T11:59:16.080Z,11.07
2018-01-20T12:01:51.160Z,11.23
2018-01-20T12:04:26.265Z,10.00
2018-01-20T12:07:01.254Z,9.32
2018-01-20T12:09:36.408Z,7.30
2018-01-20T12:12:11.725Z,11.57
2018-01-20T12:14:46.934Z,11.40
2018-01-20T12:17:21.821Z,10.33
2018-01-20T12:19:56.869Z,8.25
2018-01-20T12:22:31.649Z,8.85
2018-01-20T12:25:06.416Z,7.93
2018-01-20T12:27:41.119Z,9.47
2018-01-20T12:30:16.128Z,10.10
2018-01-20T12:32:50.947Z,10.00
2018-01-20T12:35:26.052Z,11.27
2018-01-20T12:38:00.959Z,10.40
2018-01-20T12:40:35.864Z,7.80
2018-01-20T12:43:10.880Z,8.30
2018-01-20T12:45:46.023Z,10.50
2018-01-20T12:48:20.800Z,10.37
2018-01-20T12:50:56.010Z,10.50
2018-01-20T12:53:31.113Z,10.20
2018-01-20T12:56:06.193Z,9.73
2018-01-20T12:58:41.256Z,10.13
2018-01-20T13:01:16.033Z,12.30
2018-01-20T13:03:51.234Z,11.85
2018-01-20T13:06:26.035Z,10.30
2018-01-20T13:09:00.610Z,14.50
2018-01-20T13:11:35.903Z,11.10
2018-01-20T13:14:10.556Z,11.30
2018-01-20T13:16:45.006Z,9.60
2018-01-20T13:19:20.295Z,10.17
2018-01-20T13:21:55.508Z,9.13
2018-01-20T13:24:30.594Z,10.30
2018-01-20T13:27:06.275Z,10.90
2018-01-20T13:29:41.088Z,8.30
2018-01-20T13:32:16.094Z,10.60
2018-01-20T13:34:51.025Z,9.63
2018-01-20T13:37:26.188Z,11.57
2018-01-20T13:40:01.349Z,8.35
2018-01-20T13:42:36.143Z,8.83
2018-01-20T13:45:11.332Z,8.18
2018-01-20T13:47:46.114Z,8.30
2018-01-20T13:50:21.129Z,8.00
2018-01-20T13:52:56.217Z,9.20
2018-01-20T13:55:31.395Z,9.40
2018-01-20T13:58:07.791Z,7.90
2018-01-20T14:00:42.602Z,8.00
2018-01-20T14:03:17.703Z,7.80
2018-01-20T14:05:53.313Z,7.75
2018-01-20T14:08:28.179Z,7.40
2018-01-20T14:11:03.060Z,7.10
2018-01-20T14:13:38.149Z,7.47
2018-01-20T14:16:13.118Z,9.17
2018-01-20T14:18:47.802Z,8.23
2018-01-20T14:21:22.786Z,7.80
2018-01-20T14:23:57.757Z,8.17
2018-01-20T14:26:33.068Z,8.52
2018-01-20T14:29:08.093Z,8.43
2018-01-20T14:31:43.174Z,7.50
2018-01-20T14:34:18.181Z,8.80
2018-01-20T14:36:53.573Z,8.25
2018-01-20T14:39:28.273Z,8.20
2018-01-20T14:42:03.269Z,8.03
2018-01-20T14:44:37.865Z,7.93
2018-01-20T14:47:13.254Z,6.70
2018-01-20T14:49:48.238Z,8.27
2018-01-20T14:52:23.108Z,8.88
2018-01-20T14:54:58.383Z,7.47
2018-01-20T14:57:33.337Z,9.10
2018-01-20T15:00:08.078Z,7.30
2018-01-20T15:02:43.148Z,7.70
2018-01-20T15:05:18.340Z,8.20
2018-01-20T15:07:53.605Z,8.88
2018-01-20T15:10:28.350Z,7.37
2018-01-20T15:13:03.314Z,7.30
2018-01-20T15:15:38.365Z,8.60
2018-01-20T15:18:13.382Z,8.43
2018-01-20T15:20:48.374Z,9.40
2018-01-20T15:23:23.376Z,7.97
2018-01-20T15:25:58.553Z,8.60
2018-01-20T15:28:33.449Z,7.70
2018-01-20T15:31:08.729Z,9.40
2018-01-20T15:33:43.900Z,8.13
2018-01-20T15:36:18.970Z,9.73
2018-01-20T15:38:54.441Z,10.93
2018-01-20T15:41:29.329Z,13.40
2018-01-20T15:44:04.621Z,13.60
2018-01-20T15:46:39.529Z,14.07
2018-01-20T15:49:14.505Z,13.17
2018-01-20T15:51:49.509Z,13.17
2018-01-20T15:54:24.578Z,17.00
2018-01-20T15:56:59.522Z,17.50
2018-01-20T15:59:34.421Z,13.47
2018-01-20T16:02:09.668Z,11.03
2018-01-20T16:04:44.445Z,10.87
2018-01-20T16:07:19.240Z,13.97
2018-01-20T16:09:53.973Z,13.50
2018-01-20T16:12:29.001Z,14.77
2018-01-20T16:15:03.569Z,12.60
2018-01-20T16:17:38.849Z,12.10
2018-01-20T16:20:13.673Z,11.50
2018-01-20T16:22:48.551Z,9.67
2018-01-20T16:25:23.843Z,8.77
2018-01-20T16:27:58.902Z,19.77
2018-01-20T16:30:33.676Z,16.73
2018-01-20T16:33:08.856Z,11.53
2018-01-20T16:35:43.737Z,12.60
2018-01-20T16:38:18.289Z,8.90
2018-01-20T16:40:53.948Z,22.63
2018-01-20T16:43:28.158Z,25.07
2018-01-20T16:46:03.789Z,17.08
2018-01-20T16:48:38.570Z,15.65
2018-01-20T16:51:13.648Z,15.90
2018-01-20T16:53:48.601Z,11.10
2018-01-20T16:56:23.705Z,13.63
2018-01-20T16:58:58.852Z,15.87
2018-01-20T17:01:33.730Z,13.10
2018-01-20T17:04:08.885Z,20.30
2018-01-20T17:06:43.611Z,20.97
2018-01-20T17:09:18.701Z,26.00
2018-01-20T17:11:53.923Z,18.53
2018-01-20T17:14:29.506Z,8.65
2018-01-20T17:17:04.167Z,8.70
2018-01-20T17:19:39.140Z,8.10
2018-01-20T17:22:14.210Z,8.63
2018-01-20T17:24:49.609Z,9.47
2018-01-20T17:27:24.635Z,16.97
2018-01-20T17:29:59.838Z,13.35
2018-01-20T17:32:34.534Z,7.45
2018-01-20T17:35:09.556Z,7.15
2018-01-20T17:37:44.728Z,8.93
2018-01-20T17:40:19.772Z,6.60
2018-01-20T17:42:54.745Z,7.03
2018-01-20T17:45:29.535Z,6.33
2018-01-20T17:48:04.612Z,6.83
2018-01-20T17:50:39.414Z,7.05
2018-01-20T17:53:14.073Z,6.83
2018-01-20T17:55:48.951Z,6.87
2018-01-20T17:58:23.956Z,7.17
2018-01-20T18:00:58.812Z,7.57
2018-01-20T18:03:33.806Z,7.03
2018-01-20T18:06:08.944Z,7.50
2018-01-20T18:08:43.811Z,8.23
2018-01-20T18:11:18.877Z,10.17
2018-01-20T18:13:54.068Z,9.93
2018-01-20T18:16:28.864Z,10.50
2018-01-20T18:19:03.662Z,9.25
2018-01-20T18:21:38.460Z,8.27
2018-01-20T18:24:13.283Z,9.10
2018-01-20T18:26:48.690Z,10.88
2018-01-20T18:29:23.806Z,9.97
2018-01-20T18:31:58.953Z,7.00
2018-01-20T18:34:33.754Z,8.10
2018-01-20T18:37:08.446Z,6.95
2018-01-20T18:39:43.181Z,6.63
2018-01-20T18:42:18.290Z,7.00
2018-01-20T18:44:54.145Z,7.20
2018-01-20T18:47:29.128Z,6.90
2018-01-20T18:50:03.997Z,6.80
2018-01-20T18:52:38.803Z,6.77
2018-01-20T18:55:13.883Z,6.97
2018-01-20T18:57:48.925Z,8.43
2018-01-20T19:00:23.919Z,8.73
2018-01-20T19:02:58.981Z,6.78
2018-01-20T19:05:33.909Z,7.90
2018-01-20T19:08:08.557Z,6.87
2018-01-20T19:10:43.736Z,7.30
2018-01-20T19:13:18.834Z,8.50
2018-01-20T19:15:54.287Z,6.55
2018-01-20T19:18:29.385Z,7.10
2018-01-20T19:21:04.166Z,6.33
2018-01-20T19:23:39.225Z,6.43
2018-01-20T19:26:14.087Z,7.40
2018-01-20T19:28:49.051Z,9.03
2018-01-20T19:31:23.984Z,7.40
2018-01-20T19:33:59.041Z,7.20
2018-01-20T19:36:33.553Z,7.63
2018-01-20T19:39:08.498Z,8.57
2018-01-20T19:41:43.367Z,6.70
2018-01-20T19:44:19.264Z,6.37
2018-01-20T19:46:54.320Z,7.60
2018-01-20T19:49:29.512Z,8.90
2018-01-20T19:52:04.496Z,7.60
2018-01-20T19:54:39.485Z,6.47
2018-01-20T19:57:14.833Z,6.87
2018-01-20T19:59:49.525Z,6.97
2018-01-20T20:02:24.521Z,6.67
2018-01-20T20:04:59.407Z,6.80
2018-01-20T20:07:34.543Z,7.67
2018-01-20T20:10:09.350Z,7.67
2018-01-20T20:12:44.113Z,7.80
2018-01-20T20:15:19.114Z,7.33
2018-01-20T20:17:54.360Z,7.17
2018-01-20T20:20:30.758Z,8.63
2018-01-20T20:23:05.706Z,8.15
2018-01-20T20:25:41.101Z,8.60
2018-01-20T20:28:15.714Z,9.30
2018-01-20T20:30:50.947Z,8.48
2018-01-20T20:33:25.506Z,9.60
2018-01-20T20:36:00.529Z,10.63
2018-01-20T20:38:35.604Z,9.87
2018-01-20T20:41:10.497Z,9.93
2018-01-20T20:43:45.603Z,9.50
2018-01-20T20:46:20.683Z,10.10
2018-01-20T20:48:56.110Z,10.40
2018-01-20T20:51:31.088Z,9.13
2018-01-20T20:54:06.158Z,9.03
2018-01-20T20:56:41.312Z,9.43
2018-01-20T20:59:16.196Z,9.07
2018-01-20T21:01:51.380Z,9.60
2018-01-20T21:04:26.999Z,10.40
2018-01-20T21:07:01.502Z,8.80
2018-01-20T21:09:36.483Z,9.33
2018-01-20T21:12:11.429Z,8.48
2018-01-20T21:14:46.252Z,9.57
2018-01-20T21:17:21.145Z,10.25
2018-01-20T21:19:55.842Z,11.40
2018-01-20T21:22:31.184Z,11.12
2018-01-20T21:25:05.924Z,11.63
2018-01-20T21:27:41.096Z,14.85
2018-01-20T21:30:15.522Z,10.43
2018-01-20T21:32:50.427Z,9.60
2018-01-20T21:35:25.404Z,9.87
2018-01-20T21:38:00.558Z,9.38
2018-01-20T21:40:35.341Z,8.87
2018-01-20T21:43:10.610Z,8.63
2018-01-20T21:45:45.425Z,9.40
2018-01-20T21:48:20.211Z,8.87
2018-01-20T21:50:55.246Z,8.20
2018-01-20T21:53:30.393Z,9.00
2018-01-20T21:56:05.609Z,9.88
2018-01-20T21:58:40.368Z,8.60
2018-01-20T22:01:15.398Z,9.13
2018-01-20T22:03:50.840Z,9.50
2018-01-20T22:06:25.753Z,8.60
2018-01-20T22:09:00.715Z,8.43
2018-01-20T22:11:35.482Z,8.53
2018-01-20T22:14:10.705Z,9.90
2018-01-20T22:16:45.597Z,8.50
2018-01-20T22:19:20.260Z,10.20
2018-01-20T22:21:55.840Z,9.43
2018-01-20T22:24:30.778Z,10.13
2018-01-20T22:27:06.385Z,9.35
2018-01-20T22:29:41.370Z,8.90
2018-01-20T22:32:16.472Z,9.43
2018-01-20T22:34:51.742Z,9.70
2018-01-20T22:37:26.632Z,9.70
2018-01-20T22:40:01.612Z,8.88
2018-01-20T22:42:36.485Z,8.47
2018-01-20T22:45:11.442Z,9.07
2018-01-20T22:47:46.395Z,8.13
2018-01-20T22:50:21.501Z,9.03
2018-01-20T22:52:56.677Z,9.03
2018-01-20T22:55:31.317Z,8.63
2018-01-20T22:58:06.753Z,8.70
2018-01-20T23:00:41.502Z,8.37
2018-01-20T23:03:16.506Z,8.67
2018-01-20T23:05:51.464Z,8.17
2018-01-20T23:08:26.427Z,8.50
2018-01-20T23:11:01.601Z,8.88
2018-01-20T23:13:36.473Z,8.77
2018-01-20T23:16:11.729Z,8.57
2018-01-20T23:18:46.592Z,7.97
2018-01-20T23:21:21.590Z,8.30
2018-01-20T23:23:56.572Z,9.40
2018-01-20T23:26:31.541Z,9.33
2018-01-20T23:29:06.701Z,9.30
2018-01-20T23:31:41.581Z,8.70
2018-01-20T23:34:16.447Z,9.23
2018-01-20T23:36:51.518Z,10.10
2018-01-20T23:39:26.480Z,10.18
2018-01-20T23:42:01.443Z,9.27
2018-01-20T23:44:36.449Z,8.35
2018-01-20T23:47:11.440Z,8.80
2018-01-20T23:49:46.588Z,9.17
2018-01-20T23:52:21.528Z,9.50
2018-01-20T23:54:56.196Z,9.43
2018-01-20T23:57:31.319Z,10.63
